Terminal Aerodrome Forecast
Issued by NWS Cleveland, OH

Home | Current Version | Previous Version | Text Only | Print | Product List | Glossary On
Versions: 1 2 3 4 5 6 7 8 9 10 11 12 13 14 15 16 17 18 19 20 21 22 23 24 25
000
FTUS41 KCLE 161131
TAFCLE
TAF
KCLE 161131Z 1612/1718 16005KT P6SM BKN100
     FM162200 09005KT 5SM BR VCSH SCT008 OVC015
     FM170400 13008KT 4SM -RA BR OVC008=

USA.gov is the U.S. government's official web portal to all federal, state and local government web resources and services.